Time;durP1;ratioP1;P1;durP2;ratioP2;P2;SDS_P1;SDS_P2;PMS_P1;PMS_P2;Temp;Humidity;BMP_temperature;BMP_pressure;BME280_temperature;BME280_humidity;BME280_pressure;Samples;Min_cycle;Max_cycle;Signal;HPM_P1;HPM_P2
2023/04/07 00:45:31;;;;;;;10.80;5.47;;;5.10;66.30;;;;;;6173693;23;20028;31
2023/04/07 00:47:57;;;;;;;10.15;5.80;;;5.10;66.40;;;;;;4962931;28;20103;-86
2023/04/07 02:27:14;;;;;;;12.98;6.20;;;;;;;;;;5693849;23;20118;-83
2023/04/07 02:29:40;;;;;;;9.73;6.30;;;;;;;;;;5215133;23;20020;-83
2023/04/07 02:32:06;;;;;;;12.15;6.22;;;;;;;;;;5009605;28;20038;-82
2023/04/07 02:34:32;;;;;;;10.73;6.82;;;;;;;;;;4991015;28;20018;-83
2023/04/07 02:36:58;;;;;;;9.70;6.63;;;;;;;;;;5005580;28;20037;-83
2023/04/07 02:39:24;;;;;;;12.88;6.55;;;;;;;;;;5011043;28;20026;-83
2023/04/07 02:41:50;;;;;;;11.82;6.03;;;;;;;;;;4993420;28;20086;-83
2023/04/07 02:44:16;;;;;;;13.35;6.95;;;;;;;;;;5006860;28;20022;-82
2023/04/07 02:46:42;;;;;;;12.07;7.13;;;;;;;;;;5007157;28;20098;-83
2023/04/07 02:49:08;;;;;;;13.68;6.20;;;;;;;;;;5009723;28;20042;-83
2023/04/07 02:51:34;;;;;;;12.35;6.20;;;;;;;;;;4992350;28;20049;-83
2023/04/07 02:54:00;;;;;;;11.27;6.65;;;;;;;;;;5007887;28;20029;-83
2023/04/07 02:56:26;;;;;;;13.40;7.30;;;;;;;;;;5008795;28;20121;-83
2023/04/07 02:58:52;;;;;;;12.63;6.72;;;5.00;66.60;;;;;;4992764;28;20054;-83
2023/04/07 03:01:18;;;;;;;15.55;7.35;;;5.00;67.40;;;;;;4992041;28;20034;-83
2023/04/07 03:03:43;;;;;;;11.73;6.70;;;5.00;67.50;;;;;;5008127;28;20026;-83
2023/04/07 03:06:09;;;;;;;13.13;6.65;;;5.00;67.60;;;;;;4987948;28;20034;-83
2023/04/07 03:08:35;;;;;;;13.38;6.63;;;;;;;;;;4987825;28;20026;-83
2023/04/07 03:11:01;;;;;;;11.13;6.82;;;4.90;67.20;;;;;;4988677;28;20027;-83
2023/04/07 03:13:28;;;;;;;13.57;7.22;;;4.90;68.00;;;;;;4988466;28;20053;-83
2023/04/07 03:15:54;;;;;;;13.38;6.88;;;4.90;68.30;;;;;;4988085;28;20083;-83
2023/04/07 03:18:19;;;;;;;10.05;6.25;;;4.90;68.60;;;;;;5005727;28;20097;-82
2023/04/07 03:20:47;;;;;;;15.65;6.88;;;4.80;68.70;;;;;;5005474;28;20078;-83
2023/04/07 03:23:13;;;;;;;10.20;6.75;;;5.30;69.20;;;;;;5005232;28;20022;-83
2023/04/07 03:25:40;;;;;;;12.75;7.05;;;5.80;69.60;;;;;;4990226;28;20505;-84
2023/04/07 03:28:05;;;;;;;11.77;6.47;;;4.70;69.40;;;;;;4989480;28;20099;-83
2023/04/07 03:30:31;;;;;;;10.77;6.40;;;4.60;69.60;;;;;;4993807;28;20073;-83
2023/04/07 03:32:56;;;;;;;10.60;6.43;;;4.60;69.90;;;;;;5006703;28;20030;-83
2023/04/07 03:35:22;;;;;;;10.98;6.85;;;4.60;69.80;;;;;;5007223;28;20030;-84
2023/04/07 03:37:48;;;;;;;10.95;6.40;;;4.60;69.80;;;;;;5008076;28;20030;-83
2023/04/07 03:40:14;;;;;;;10.63;6.45;;;4.50;70.20;;;;;;5006692;28;20029;-83
2023/04/07 03:42:39;;;;;;;13.13;7.25;;;4.50;70.30;;;;;;5007012;28;20029;-83
2023/04/07 03:45:05;;;;;;;11.30;7.10;;;4.50;70.60;;;;;;5007092;28;20053;-83
2023/04/07 03:47:31;;;;;;;10.40;7.20;;;4.40;70.80;;;;;;5007408;28;20030;-84
2023/04/07 03:49:57;;;;;;;11.60;6.68;;;4.40;71.50;;;;;;5005686;28;20531;-83
2023/04/07 03:52:22;;;;;;;9.55;6.57;;;4.30;71.30;;;;;;5005950;28;20022;-83
2023/04/07 03:54:48;;;;;;;14.60;7.68;;;4.30;71.50;;;;;;5005195;28;20027;-83
2023/04/07 03:57:14;;;;;;;13.38;7.25;;;4.30;71.70;;;;;;5006253;28;20037;-83
2023/04/07 03:59:40;;;;;;;12.43;6.70;;;4.20;72.10;;;;;;5005164;28;20036;-83
2023/04/07 04:02:05;;;;;;;18.35;7.35;;;4.20;72.30;;;;;;5006093;28;20026;-83
2023/04/07 04:04:31;;;;;;;10.52;6.53;;;6.00;73.10;;;;;;5005807;28;20077;-83
2023/04/07 04:06:57;;;;;;;13.48;7.03;;;4.20;72.40;;;;;;5005267;28;20102;-83
2023/04/07 04:09:22;;;;;;;12.10;7.32;;;4.20;72.40;;;;;;5010798;28;20069;-83
2023/04/07 04:11:48;;;;;;;15.73;7.15;;;4.20;72.00;;;;;;5010072;28;20034;-82
2023/04/07 04:14:14;;;;;;;13.55;7.55;;;4.20;72.80;;;;;;5007206;28;20035;-83
2023/04/07 04:16:40;;;;;;;13.82;7.25;;;4.20;73.20;;;;;;5004816;28;20033;-83
2023/04/07 04:19:05;;;;;;;15.32;8.07;;;4.30;73.70;;;;;;5003734;28;20035;-83
2023/04/07 04:21:31;;;;;;;12.00;7.45;;;4.20;73.70;;;;;;5003064;28;20026;-83
2023/04/07 04:23:57;;;;;;;12.65;7.45;;;4.10;74.10;;;;;;5003139;28;20124;-82
2023/04/07 04:26:24;;;;;;;11.45;7.10;;;4.10;74.10;;;;;;5004549;28;20034;-83
2023/04/07 04:28:51;;;;;;;13.38;8.05;;;4.10;74.10;;;;;;5004132;28;20057;-83
2023/04/07 04:31:17;;;;;;;13.68;7.35;;;4.10;74.20;;;;;;5001754;28;20145;-82
2023/04/07 04:33:43;;;;;;;12.80;7.15;;;4.10;74.20;;;;;;5002811;28;20090;-83
2023/04/07 04:36:08;;;;;;;13.77;7.93;;;4.50;74.50;;;;;;5003256;28;20510;-83
2023/04/07 04:38:34;;;;;;;11.60;7.03;;;4.20;74.50;;;;;;5003939;28;20029;-83
2023/04/07 04:41:00;;;;;;;11.30;7.38;;;4.20;74.80;;;;;;5006228;28;20029;-83
2023/04/07 04:43:26;;;;;;;14.63;7.30;;;5.50;75.50;;;;;;5010478;28;20038;-84
2023/04/07 04:45:51;;;;;;;14.70;7.25;;;4.20;75.10;;;;;;5012661;28;20038;-82
2023/04/07 04:48:17;;;;;;;11.05;6.45;;;;;;;;;;5190576;23;20038;-83
2023/04/07 04:50:43;;;;;;;12.02;7.57;;;;;;;;;;5018829;28;20007;-84
2023/04/07 04:53:10;;;;;;;13.15;6.63;;;;;;;;;;5002078;28;20019;-85
2023/04/07 04:55:36;;;;;;;13.88;7.88;;;;;;;;;;5018909;28;20022;-84
2023/04/07 04:58:02;;;;;;;11.73;7.30;;;;;;;;;;5018481;28;20017;-84
2023/04/07 05:00:28;;;;;;;14.63;8.48;;;;;;;;;;5202266;23;20073;-84
2023/04/07 05:02:54;;;;;;;19.67;8.40;;;;;;;;;;5019027;23;20035;-84
2023/04/07 05:05:20;;;;;;;19.30;8.70;;;;;;;;;;4999022;28;20022;-84
2023/04/07 05:07:46;;;;;;;19.08;8.73;;;;;;;;;;4997212;28;20039;-84
2023/04/07 05:10:13;;;;;;;19.50;8.50;;;;;;;;;;4998065;28;20038;-84
2023/04/07 05:12:39;;;;;;;20.83;9.32;;;;;;;;;;4982137;28;20022;-84
2023/04/07 05:15:05;;;;;;;17.85;8.80;;;;;;;;;;5087783;23;20054;-85
2023/04/07 05:17:31;;;;;;;15.48;8.27;;;;;;;;;;5017765;28;20026;-84
2023/04/07 05:19:58;;;;;;;15.35;8.13;;;;;;;;;;5017948;28;20022;-84
2023/04/07 05:22:24;;;;;;;14.30;7.88;;;;;;;;;;5017616;28;20030;-85
2023/04/07 05:24:50;;;;;;;13.75;6.95;;;4.70;73.50;;;;;;5017694;28;20007;-84
2023/04/07 05:27:16;;;;;;;13.32;8.10;;;;;;;;;;5000178;28;20046;-84
2023/04/07 05:29:42;;;;;;;13.07;6.72;;;;;;;;;;5000328;28;20014;-85
2023/04/07 05:32:08;;;;;;;10.82;6.55;;;;;;;;;;5017338;28;20011;-85
2023/04/07 05:34:34;;;;;;;12.68;7.45;;;;;;;;;;5017207;28;20050;-85
2023/04/07 05:37:00;;;;;;;13.70;7.15;;;;;;;;;;5000718;28;20034;-84
2023/04/07 05:39:27;;;;;;;13.30;7.40;;;;;;;;;;5000056;28;20029;-84
2023/04/07 05:41:53;;;;;;;11.35;7.45;;;;;;;;;;4999657;28;20090;-84
2023/04/07 05:44:19;;;;;;;16.55;7.93;;;;;;;;;;5016421;28;20014;-85
2023/04/07 05:46:45;;;;;;;11.07;6.95;;;;;;;;;;5015935;28;20075;-83
2023/04/07 05:49:11;;;;;;;14.05;7.63;;;;;;;;;;4999514;28;20006;-84
2023/04/07 05:51:37;;;;;;;14.55;7.80;;;;;;;;;;5014251;28;20046;-83
2023/04/07 05:54:03;;;;;;;12.43;7.28;;;5.40;70.80;;;;;;5184972;23;20058;-83
2023/04/07 05:56:29;;;;;;;19.90;7.22;;;5.40;71.20;;;;;;5012849;28;20030;-84
2023/04/07 05:58:55;;;;;;;10.77;7.10;;;5.60;71.30;;;;;;5013990;28;20027;-84
2023/04/07 06:01:20;;;;;;;12.00;6.55;;;5.60;70.80;;;;;;5014991;28;20037;-84
2023/04/07 06:03:46;;;;;;;11.88;7.00;;;5.60;70.40;;;;;;5015002;28;20030;-84
2023/04/07 06:06:12;;;;;;;10.55;7.22;;;5.70;69.70;;;;;;5014474;28;20026;-83
2023/04/07 06:08:37;;;;;;;11.48;6.78;;;5.80;69.20;;;;;;5012111;28;20034;-83
2023/04/07 06:11:03;;;;;;;9.82;7.03;;;5.80;68.80;;;;;;5005142;28;20046;-81
2023/04/07 06:13:28;;;;;;;12.43;7.05;;;5.70;68.90;;;;;;5003979;28;20057;-82
2023/04/07 06:15:55;;;;;;;12.00;7.07;;;5.70;68.60;;;;;;5003726;28;20061;-81
2023/04/07 06:20:57;;;;;;;10.40;6.63;;;5.80;68.50;;;;;;5232407;23;20054;-83
2023/04/07 06:23:22;;;;;;;14.15;7.32;;;5.80;68.90;;;;;;4996890;28;20470;-83
2023/04/07 06:25:52;;;;;;;12.75;7.53;;;5.90;68.60;;;;;;5001284;28;20037;-79
2023/04/07 06:28:18;;;;;;;14.05;7.00;;;5.90;68.40;;;;;;5003738;28;20034;-78
2023/04/07 06:30:44;;;;;;;15.05;7.28;;;5.90;68.10;;;;;;4983355;28;20054;-80
2023/04/07 06:33:10;;;;;;;11.88;6.72;;;6.00;68.00;;;;;;4984359;28;20061;-80
2023/04/07 06:35:35;;;;;;;12.43;6.53;;;6.00;68.00;;;;;;4986248;28;20481;-81
2023/04/07 06:38:01;;;;;;;11.63;7.07;;;6.10;67.70;;;;;;4985080;28;20065;-80
2023/04/07 06:40:27;;;;;;;20.75;8.00;;;6.10;67.00;;;;;;5002086;28;20034;-80
2023/04/07 06:42:53;;;;;;;10.80;6.25;;;6.10;67.20;;;;;;5008121;28;20033;-82
2023/04/07 06:45:19;;;;;;;15.40;6.95;;;6.20;66.70;;;;;;4995297;28;20026;-84
2023/04/07 06:47:46;;;;;;;11.75;7.22;;;6.40;67.30;;;;;;4987039;28;20066;-81
2023/04/07 06:50:11;;;;;;;8.68;6.50;;;6.20;67.00;;;;;;5002976;28;20023;-80
2023/04/07 06:52:37;;;;;;;12.88;7.65;;;6.20;66.70;;;;;;5003303;28;20027;-64
2023/04/07 06:55:03;;;;;;;11.48;6.55;;;6.30;68.80;;;;;;4998251;28;20027;-78
2023/04/07 06:57:29;;;;;;;13.07;6.70;;;6.30;66.90;;;;;;4982654;28;20093;-78
2023/04/07 06:59:54;;;;;;;10.63;6.95;;;6.40;67.10;;;;;;4982585;28;20026;-79
2023/04/07 07:02:20;;;;;;;11.65;6.68;;;6.40;66.90;;;;;;4999809;28;20030;-80
2023/04/07 07:04:45;;;;;;;14.15;7.30;;;6.40;66.60;;;;;;4981898;28;20030;-80
2023/04/07 07:07:11;;;;;;;13.75;7.18;;;6.40;66.60;;;;;;4981208;28;20030;-79
2023/04/07 07:09:37;;;;;;;12.05;7.25;;;6.40;66.80;;;;;;4998146;28;20030;-80
2023/04/07 07:12:03;;;;;;;12.30;7.32;;;6.40;67.20;;;;;;5004922;28;20058;-80
2023/04/07 07:14:28;;;;;;;13.73;7.75;;;6.50;67.10;;;;;;4985587;28;20030;-79
2023/04/07 07:16:54;;;;;;;11.93;7.05;;;6.60;65.80;;;;;;5000674;28;20475;-80
2023/04/07 07:19:19;;;;;;;11.75;7.20;;;6.50;66.30;;;;;;5014193;28;20042;-82
2023/04/07 07:21:45;;;;;;;10.85;7.00;;;6.60;66.10;;;;;;4999278;28;20061;-61
2023/04/07 07:24:11;;;;;;;12.50;8.07;;;6.70;69.40;;;;;;4995775;28;20053;-59
2023/04/07 07:26:36;;;;;;;8.90;6.22;;;6.80;67.80;;;;;;4998579;28;20045;-69
2023/04/07 07:29:02;;;;;;;11.70;6.75;;;7.00;66.60;;;;;;4997608;28;20032;-64
2023/04/07 07:31:28;;;;;;;48.55;23.95;;;6.90;66.20;;;;;;4995763;28;20029;-59
2023/04/07 07:33:53;;;;;;;11.90;6.82;;;6.90;67.30;;;;;;4978357;28;20513;-80
2023/04/07 07:36:19;;;;;;;11.70;6.85;;;7.00;66.40;;;;;;4996794;28;20033;-84
2023/04/07 07:38:45;;;;;;;11.68;6.80;;;;;;;;;;5048889;23;20046;-85
2023/04/07 07:44:51;;;;;;;11.90;7.38;;;7.10;64.00;;;;;;5014059;28;20112;-83
2023/04/07 07:47:17;;;;;;;13.63;7.60;;;7.10;64.90;;;;;;5008177;28;20030;-83
2023/04/07 07:49:42;;;;;;;15.30;7.28;;;7.10;64.70;;;;;;5010693;28;20037;-83
2023/04/07 07:52:08;;;;;;;10.85;6.90;;;7.10;63.80;;;;;;5066549;23;20049;-82
2023/04/07 07:54:33;;;;;;;13.32;7.32;;;7.30;63.40;;;;;;5061834;23;20050;-82
2023/04/07 07:57:43;;;;;;;9.77;6.80;;;7.30;63.80;;;;;;5009274;28;20061;-80
2023/04/07 08:00:09;;;;;;;14.80;6.78;;;7.50;64.00;;;;;;5012549;28;20026;-76
2023/04/07 08:02:35;;;;;;;11.68;7.25;;;7.50;62.30;;;;;;5133772;23;20062;-79
2023/04/07 08:05:01;;;;;;;12.60;7.13;;;7.70;62.10;;;;;;5003341;28;20045;-80
2023/04/07 08:07:26;;;;;;;12.23;7.30;;;7.60;62.80;;;;;;5004330;28;20038;-80
2023/04/07 08:09:52;;;;;;;13.57;7.10;;;8.10;62.60;;;;;;4987939;28;20139;-78
2023/04/07 08:12:18;;;;;;;11.38;7.22;;;8.70;60.40;;;;;;5008453;28;20026;-79
2023/04/07 08:14:44;;;;;;;13.55;7.47;;;9.10;58.50;;;;;;4990130;28;20037;-80
2023/04/07 08:17:11;;;;;;;15.98;7.40;;;9.30;57.60;;;;;;4989131;28;20058;-80
2023/04/07 08:19:37;;;;;;;13.15;7.68;;;9.90;55.80;;;;;;4988376;28;20026;-80
2023/04/07 08:22:02;;;;;;;10.02;7.03;;;9.90;56.30;;;;;;4985277;28;20023;-79
2023/04/07 08:24:28;;;;;;;11.52;7.05;;;10.00;55.50;;;;;;4987024;28;20057;-79
2023/04/07 08:26:54;;;;;;;14.00;7.65;;;9.90;55.20;;;;;;5003789;28;20038;-78
2023/04/07 08:29:20;;;;;;;15.13;6.90;;;9.80;55.20;;;;;;4986208;28;20394;-80
2023/04/07 08:31:46;;;;;;;10.57;7.05;;;9.60;55.70;;;;;;5004046;28;20032;-80
2023/04/07 08:34:12;;;;;;;11.27;6.47;;;9.70;56.20;;;;;;4986658;28;20125;-79
2023/04/07 08:36:38;;;;;;;11.63;7.47;;;9.90;55.50;;;;;;4985168;28;20026;-78
2023/04/07 08:39:04;;;;;;;10.38;6.15;;;10.10;54.40;;;;;;4987435;28;20041;-77
2023/04/07 08:41:36;;;;;;;14.25;8.02;;;10.00;54.60;;;;;;4985390;28;20030;-79
2023/04/07 08:44:03;;;;;;;11.52;6.88;;;10.20;53.90;;;;;;4986189;28;20054;-60
2023/04/07 08:46:29;;;;;;;12.20;6.53;;;10.20;53.20;;;;;;4994334;28;20081;-61
2023/04/07 08:48:56;;;;;;;9.75;6.25;;;10.30;56.00;;;;;;4994387;28;20184;-61
2023/04/07 08:51:30;;;;;;;7.53;6.25;;;10.50;55.50;;;;;;4994345;28;20109;-62
2023/04/07 08:54:10;;;;;;;13.35;6.93;;;10.60;54.20;;;;;;4995829;28;20034;-78
2023/04/07 08:56:40;;;;;;;13.75;7.50;;;10.60;53.10;;;;;;5002470;28;20041;-79
2023/04/07 08:59:12;;;;;;;13.77;6.90;;;10.50;52.80;;;;;;4984250;28;20090;-79
2023/04/07 09:01:38;;;;;;;10.48;6.47;;;10.60;51.70;;;;;;5004193;28;20470;-79
2023/04/07 09:04:06;;;;;;;12.23;7.18;;;10.60;51.60;;;;;;4985975;28;20054;-80
2023/04/07 09:06:32;;;;;;;10.45;7.25;;;10.40;51.50;;;;;;4985407;28;20037;-76
2023/04/07 09:08:59;;;;;;;14.80;7.43;;;10.30;51.90;;;;;;5003609;28;20041;-76
2023/04/07 09:11:35;;;;;;;9.45;6.90;;;10.20;51.60;;;;;;4984377;28;20475;-79
2023/04/07 09:14:00;;;;;;;11.82;7.32;;;10.20;52.30;;;;;;5001894;28;20065;-79
2023/04/07 09:16:29;;;;;;;13.48;7.40;;;9.90;52.70;;;;;;5478354;23;20031;-84
2023/04/07 09:18:56;;;;;;;10.68;7.28;;;;;;;;;;4985307;28;20027;-80
2023/04/07 09:21:22;;;;;;;12.55;8.10;;;;;;;;;;4982296;28;20054;-81
2023/04/07 09:23:48;;;;;;;13.90;7.85;;;9.30;53.50;;;;;;4982866;28;20079;-81
2023/04/07 09:26:16;;;;;;;13.68;7.82;;;9.30;54.20;;;;;;4984023;28;20026;-80
2023/04/07 09:28:47;;;;;;;10.98;7.28;;;9.30;54.30;;;;;;4965506;28;20035;-81
2023/04/07 09:31:13;;;;;;;11.57;6.93;;;9.50;54.60;;;;;;4982631;28;20031;-80
2023/04/07 09:33:38;;;;;;;12.13;7.43;;;9.50;54.60;;;;;;4985087;28;20038;-81
2023/04/07 09:36:05;;;;;;;13.18;8.15;;;9.30;54.70;;;;;;4987031;28;20027;-81
2023/04/07 09:38:36;;;;;;;14.70;7.72;;;9.40;55.30;;;;;;4985892;28;20037;-80
2023/04/07 09:41:15;;;;;;;20.67;8.00;;;9.20;55.40;;;;;;4984906;28;20027;-80
2023/04/07 09:43:47;;;;;;;13.30;7.25;;;9.10;56.00;;;;;;4983180;28;20082;-80
2023/04/07 09:46:15;;;;;;;14.75;7.30;;;9.10;55.70;;;;;;4985082;28;20026;-80
2023/04/07 09:48:42;;;;;;;12.32;7.68;;;9.00;55.30;;;;;;4984453;28;20555;-80
2023/04/07 09:51:10;;;;;;;11.82;7.07;;;9.00;54.80;;;;;;4986144;28;20022;-80
2023/04/07 09:53:46;;;;;;;12.98;7.35;;;9.20;55.70;;;;;;4985518;28;20077;-81
2023/04/07 09:56:12;;;;;;;12.20;7.18;;;9.30;53.70;;;;;;4986371;28;20062;-80
2023/04/07 09:58:41;;;;;;;14.82;7.50;;;9.30;54.20;;;;;;4985038;28;20030;-80
2023/04/07 10:01:09;;;;;;;12.80;7.38;;;9.30;54.30;;;;;;4985869;28;20050;-80
2023/04/07 10:03:35;;;;;;;16.10;7.22;;;9.30;54.40;;;;;;4984901;28;20051;-80
2023/04/07 10:06:02;;;;;;;14.77;7.00;;;9.40;53.60;;;;;;4986622;28;20087;-80
2023/04/07 10:08:31;;;;;;;12.82;7.20;;;9.40;53.00;;;;;;4984811;28;20097;-80
2023/04/07 10:10:57;;;;;;;10.00;4.93;;;9.40;53.60;;;;;;4968897;28;20026;-80
2023/04/07 10:13:25;;;;;;;11.35;6.70;;;9.50;53.60;;;;;;4985394;28;20031;-80
2023/04/07 10:15:51;;;;;;;10.98;6.90;;;9.40;53.00;;;;;;4985589;28;20121;-80
2023/04/07 10:18:20;;;;;;;13.80;7.70;;;9.40;53.30;;;;;;4997346;28;20050;-80
2023/04/07 10:20:48;;;;;;;10.07;7.10;;;9.30;52.80;;;;;;4988136;28;20031;-80
2023/04/07 10:23:25;;;;;;;14.70;6.90;;;9.20;53.00;;;;;;5005256;28;20061;-80
2023/04/07 10:25:53;;;;;;;15.80;7.55;;;9.20;53.50;;;;;;4991597;28;20034;-80
2023/04/07 10:28:22;;;;;;;13.50;7.30;;;9.30;53.20;;;;;;5005318;28;20030;-80
2023/04/07 10:30:48;;;;;;;15.48;7.22;;;9.40;53.60;;;;;;4988218;28;20027;-80
2023/04/07 10:33:14;;;;;;;12.35;7.18;;;;;;;;;;5003919;28;20026;-80
2023/04/07 10:36:16;;;;;;;13.35;7.30;;;9.60;52.70;;;;;;4984785;28;20023;-80
2023/04/07 10:39:08;;;;;;;13.00;6.97;;;9.70;52.80;;;;;;4908451;29;20036;-80
2023/04/07 10:41:35;;;;;;;14.43;7.82;;;9.60;52.90;;;;;;4983529;28;20066;-80
2023/04/07 10:44:08;;;;;;;15.77;7.35;;;9.60;53.40;;;;;;4985895;28;20031;-79
2023/04/07 10:46:50;;;;;;;11.60;7.57;;;9.80;53.70;;;;;;5002437;28;20522;-79
2023/04/07 10:49:16;;;;;;;17.85;7.32;;;10.00;53.00;;;;;;4984093;28;20431;-79
2023/04/07 10:51:42;;;;;;;11.05;7.28;;;10.10;53.00;;;;;;4985811;28;20033;-78
2023/04/07 10:54:16;;;;;;;14.70;8.05;;;10.20;53.20;;;;;;5000851;28;20027;-79
2023/04/07 10:57:11;;;;;;;15.55;7.32;;;10.40;52.50;;;;;;4999232;28;20023;-78
2023/04/07 11:00:01;;;;;;;12.88;8.25;;;10.40;52.50;;;;;;4985300;28;20022;-78
2023/04/07 11:02:27;;;;;;;11.48;6.95;;;10.20;52.20;;;;;;4998768;28;20023;-79
2023/04/07 11:04:52;;;;;;;12.15;7.50;;;10.30;52.20;;;;;;4984743;28;20030;-80
2023/04/07 11:07:19;;;;;;;12.85;8.07;;;10.30;52.20;;;;;;5000943;28;20431;-68
2023/04/07 11:09:45;;;;;;;11.43;7.43;;;10.40;51.70;;;;;;4977058;28;20082;-62
2023/04/07 11:12:23;;;;;;;16.67;7.32;;;10.50;55.40;;;;;;4976503;28;20468;-62
2023/04/07 11:14:49;;;;;;;16.50;8.07;;;10.50;52.50;;;;;;4976329;28;20534;-62
2023/04/07 11:17:16;;;;;;;12.70;7.68;;;10.50;52.70;;;;;;4976473;28;20125;-61
2023/04/07 11:19:51;;;;;;;11.45;7.00;;;10.60;52.50;;;;;;4980882;28;20435;-80
2023/04/07 11:22:17;;;;;;;12.55;7.05;;;10.40;51.90;;;;;;4966009;28;20115;-78
2023/04/07 11:24:45;;;;;;;11.25;7.07;;;10.60;52.10;;;;;;4984430;28;20066;-82
2023/04/07 11:27:12;;;;;;;11.40;7.20;;;10.60;51.30;;;;;;4980414;28;20475;-81
2023/04/07 11:29:38;;;;;;;13.25;7.80;;;10.70;51.30;;;;;;4980896;28;20030;-80
2023/04/07 11:32:04;;;;;;;14.32;7.53;;;10.70;51.40;;;;;;4978590;28;20522;-81
2023/04/07 11:34:34;;;;;;;18.27;8.02;;;10.70;51.30;;;;;;4980402;28;20027;-80
2023/04/07 11:37:20;;;;;;;15.18;7.68;;;10.80;51.30;;;;;;4978243;28;20034;-77
2023/04/07 11:39:53;;;;;;;12.65;7.22;;;10.90;51.20;;;;;;4977305;28;20357;-79
2023/04/07 11:42:39;;;;;;;13.30;7.07;;;11.00;50.70;;;;;;4978915;28;20019;-78
2023/04/07 11:45:14;;;;;;;12.25;7.45;;;11.00;50.10;;;;;;4976614;28;20554;-81
2023/04/07 11:47:40;;;;;;;11.98;7.28;;;11.20;50.40;;;;;;4978095;28;20121;-80
2023/04/07 11:50:06;;;;;;;14.95;7.43;;;11.40;50.00;;;;;;4980443;28;20082;-79
2023/04/07 11:52:48;;;;;;;9.80;7.07;;;11.50;49.60;;;;;;4966996;28;20467;-80
2023/04/07 11:55:23;;;;;;;12.52;7.57;;;11.60;49.70;;;;;;4980196;28;20602;-78
2023/04/07 11:57:52;;;;;;;12.65;7.70;;;11.50;49.20;;;;;;4981564;28;20034;-79
2023/04/07 12:00:18;;;;;;;;;;;11.70;49.60;;;;;;4980744;28;20430;-80
2023/04/07 12:02:44;;;;;;;14.02;8.05;;;11.80;49.80;;;;;;4977061;28;19910;-84
2023/04/07 12:05:10;;;;;;;12.13;7.40;;;12.00;49.60;;;;;;4976475;28;20031;-83
2023/04/07 12:07:37;;;;;;;13.38;7.50;;;12.30;49.10;;;;;;4975649;28;20121;-79
2023/04/07 12:10:24;;;;;;;13.13;7.32;;;12.50;48.70;;;;;;4974790;28;20113;-80
2023/04/07 12:12:50;;;;;;;11.70;7.40;;;12.60;48.60;;;;;;4975007;28;20082;-84
2023/04/07 12:15:16;;;;;;;19.15;8.98;;;12.60;47.80;;;;;;4977268;28;20031;-77
2023/04/07 12:17:47;;;;;;;11.75;8.02;;;12.50;48.00;;;;;;4979253;28;20046;-80
2023/04/07 12:20:13;;;;;;;13.80;7.30;;;12.40;48.00;;;;;;4976703;28;20386;-77
2023/04/07 12:22:40;;;;;;;13.60;7.63;;;12.40;48.20;;;;;;4980504;28;20023;-80
2023/04/07 12:25:06;;;;;;;10.45;7.70;;;12.30;47.60;;;;;;4979911;28;20027;-82
2023/04/07 12:27:31;;;;;;;10.70;7.15;;;12.40;47.90;;;;;;4977358;28;20081;-80
2023/04/07 12:29:57;;;;;;;13.77;7.63;;;12.70;47.70;;;;;;4976299;28;20085;-89
2023/04/07 12:32:23;;;;;;;13.30;8.18;;;13.60;46.80;;;;;;4974766;28;20027;-85
2023/04/07 12:34:49;;;;;;;13.98;7.03;;;14.20;45.60;;;;;;4975570;28;20023;-83
2023/04/07 12:37:15;;;;;;;10.82;7.57;;;14.80;44.20;;;;;;4975416;28;20037;-79
2023/04/07 12:39:40;;;;;;;14.75;8.00;;;15.00;43.90;;;;;;4958008;28;20023;-80
2023/04/07 12:42:10;;;;;;;12.50;7.55;;;15.30;42.80;;;;;;4975097;28;20033;-80
2023/04/07 12:44:36;;;;;;;13.23;8.40;;;15.70;42.60;;;;;;4975258;28;20022;-86
2023/04/07 12:47:02;;;;;;;11.18;7.95;;;15.30;41.50;;;;;;4974817;28;20463;-89
2023/04/07 12:49:27;;;;;;;11.68;7.70;;;14.60;42.90;;;;;;4974259;28;20114;-80
2023/04/07 12:51:53;;;;;;;8.82;7.05;;;14.30;44.40;;;;;;4974070;28;20038;-80
2023/04/07 12:54:19;;;;;;;9.63;7.57;;;14.30;43.60;;;;;;4975147;28;20031;-80
2023/04/07 12:56:45;;;;;;;10.75;7.38;;;13.70;44.20;;;;;;4975122;28;20027;-76
2023/04/07 12:59:11;;;;;;;10.77;6.85;;;13.30;44.70;;;;;;4974730;28;20034;-75
2023/04/07 13:01:37;;;;;;;13.50;7.40;;;13.00;45.60;;;;;;4979075;28;20026;-79
2023/04/07 13:04:03;;;;;;;11.35;7.35;;;12.80;45.80;;;;;;4979974;28;20459;-79
2023/04/07 13:06:29;;;;;;;11.05;6.95;;;12.70;46.30;;;;;;4978977;28;20027;-77
2023/04/07 13:08:55;;;;;;;12.80;7.63;;;12.80;47.10;;;;;;4980634;28;20426;-83
2023/04/07 13:11:21;;;;;;;10.95;7.28;;;12.80;46.80;;;;;;4977736;28;20034;-77
2023/04/07 13:13:46;;;;;;;13.02;7.95;;;13.20;46.30;;;;;;4978895;28;20026;-77
2023/04/07 13:16:12;;;;;;;10.10;6.63;;;13.20;46.20;;;;;;4977834;28;20031;-83
2023/04/07 13:18:38;;;;;;;10.48;6.28;;;13.20;46.20;;;;;;4993001;28;20137;-79
2023/04/07 13:21:05;;;;;;;12.50;7.40;;;13.40;46.60;;;;;;4978622;28;20030;-77
2023/04/07 13:23:30;;;;;;;10.55;6.82;;;13.60;46.20;;;;;;4978209;28;20086;-79
2023/04/07 13:25:56;;;;;;;10.98;6.93;;;13.80;45.60;;;;;;4977489;28;20022;-80
2023/04/07 13:28:22;;;;;;;11.95;6.70;;;13.40;45.10;;;;;;4993364;28;20498;-80
2023/04/07 13:30:47;;;;;;;9.25;6.22;;;13.20;45.80;;;;;;4977407;28;20055;-80
2023/04/07 13:33:13;;;;;;;8.27;6.15;;;12.90;45.80;;;;;;4993721;28;20548;-80
2023/04/07 13:35:39;;;;;;;14.30;7.30;;;12.60;46.20;;;;;;4995310;28;20027;-80
2023/04/07 13:38:04;;;;;;;12.32;7.30;;;12.30;46.70;;;;;;4984709;28;20085;-80
2023/04/07 13:40:30;;;;;;;12.23;7.43;;;12.00;47.50;;;;;;4998168;28;20030;-80
2023/04/07 13:42:57;;;;;;;13.60;7.50;;;12.00;47.80;;;;;;4996620;28;20030;-81
2023/04/07 13:45:22;;;;;;;12.95;6.70;;;11.90;48.50;;;;;;4994607;28;20023;-80
2023/04/07 13:47:48;;;;;;;9.93;6.63;;;12.00;48.80;;;;;;4978371;28;20109;-80
2023/04/07 13:50:14;;;;;;;9.73;6.95;;;11.90;48.60;;;;;;4979711;28;20416;-80
2023/04/07 13:52:40;;;;;;;10.35;6.90;;;11.90;47.80;;;;;;4981484;28;20034;-80
2023/04/07 13:55:06;;;;;;;11.68;6.78;;;11.80;48.70;;;;;;4996966;28;20026;-80
2023/04/07 13:57:32;;;;;;;13.73;6.43;;;11.90;49.10;;;;;;4981411;28;20035;-79
2023/04/07 13:59:58;;;;;;;13.45;7.22;;;11.90;48.80;;;;;;4998972;28;20182;-79
2023/04/07 14:02:26;;;;;;;9.98;6.30;;;11.80;49.20;;;;;;4981672;28;20015;-80
2023/04/07 14:04:52;;;;;;;9.40;6.53;;;11.80;49.00;;;;;;4980068;28;20018;-80
2023/04/07 14:07:18;;;;;;;13.68;7.15;;;11.70;49.10;;;;;;4995386;28;20550;-80
2023/04/07 14:09:45;;;;;;;9.35;6.05;;;11.70;49.90;;;;;;4977777;28;20505;-79
2023/04/07 14:12:10;;;;;;;10.68;6.00;;;11.90;49.80;;;;;;4977831;28;20037;-80
2023/04/07 14:14:36;;;;;;;9.40;6.22;;;12.10;49.90;;;;;;4993496;28;20113;-80
2023/04/07 14:17:02;;;;;;;11.98;6.13;;;12.20;49.90;;;;;;4976908;28;20384;-80
2023/04/07 14:19:28;;;;;;;9.68;5.88;;;12.10;49.10;;;;;;4977743;28;20451;-81
2023/04/07 14:21:54;;;;;;;9.50;6.60;;;12.10;49.00;;;;;;4995412;28;20122;-82
2023/04/07 14:24:20;;;;;;;13.73;7.65;;;12.00;48.60;;;;;;4979902;28;20027;-80
2023/04/07 14:26:46;;;;;;;9.88;6.65;;;11.90;49.40;;;;;;4993911;28;20027;-81
2023/04/07 14:29:12;;;;;;;9.52;6.35;;;11.80;49.90;;;;;;4993881;28;20521;-79
2023/04/07 14:31:39;;;;;;;11.23;6.40;;;;;;;;;;4993879;28;20034;-80
2023/04/07 14:34:06;;;;;;;11.93;6.10;;;11.70;49.80;;;;;;4977064;28;20112;-80
2023/04/07 14:36:31;;;;;;;12.40;6.95;;;11.70;50.90;;;;;;4977397;28;20027;-80
2023/04/07 14:38:57;;;;;;;10.98;6.22;;;11.80;50.70;;;;;;4992668;28;20033;-80
2023/04/07 14:41:23;;;;;;;9.25;6.00;;;11.80;50.50;;;;;;4976683;28;20035;-80
2023/04/07 14:43:54;;;;;;;11.90;6.18;;;11.80;50.30;;;;;;4976096;28;20448;-80
2023/04/07 14:46:20;;;;;;;8.70;6.15;;;;;;;;;;4992846;28;20031;-80
2023/04/07 14:48:46;;;;;;;8.30;6.07;;;11.70;50.80;;;;;;4976477;28;20027;-80
2023/04/07 14:51:12;;;;;;;11.23;6.03;;;11.50;52.30;;;;;;4992632;28;20027;-80
2023/04/07 14:53:40;;;;;;;9.63;5.55;;;11.40;53.10;;;;;;4992626;28;20027;-80
2023/04/07 14:56:07;;;;;;;7.97;5.87;;;11.30;53.60;;;;;;4976318;28;20030;-80
2023/04/07 14:58:36;;;;;;;12.63;6.03;;;;;;;;;;4977264;28;20038;-81
2023/04/07 15:01:02;;;;;;;8.88;5.43;;;11.30;53.50;;;;;;4976030;28;20117;-80
2023/04/07 15:03:27;;;;;;;11.00;5.20;;;11.30;54.30;;;;;;4975857;28;20439;-81
2023/04/07 15:05:53;;;;;;;10.40;5.20;;;11.40;54.20;;;;;;4991926;28;20023;-81
2023/04/07 15:08:19;;;;;;;7.78;5.22;;;11.30;53.80;;;;;;4993054;28;20466;-80
2023/04/07 15:10:44;;;;;;;7.85;5.47;;;11.00;54.10;;;;;;4993361;28;20034;-80
2023/04/07 15:13:10;;;;;;;8.57;5.75;;;10.90;54.70;;;;;;4976751;28;20157;-81
2023/04/07 15:15:36;;;;;;;6.75;5.22;;;10.80;54.90;;;;;;4977475;28;20038;-80
2023/04/07 15:18:01;;;;;;;7.47;5.63;;;10.60;55.50;;;;;;4976482;28;20055;-80
2023/04/07 15:20:27;;;;;;;11.40;6.28;;;10.70;56.30;;;;;;4976834;28;20027;-80
2023/04/07 15:22:53;;;;;;;9.05;5.65;;;10.60;56.60;;;;;;4977665;28;20102;-80
2023/04/07 15:25:18;;;;;;;9.00;5.85;;;10.70;55.60;;;;;;4976307;28;20070;-81